sensor_id;sensor_type;location;lat;lon;timestamp;pressure;altitude;pressure_sealevel;temperature;humidity
76660;BME280;65579;45.534;6.212;2023-09-19T00:01:06;98396.18;;;21.17;47.11
76660;BME280;65579;45.534;6.212;2023-09-19T00:03:31;98395.61;;;21.96;46.07
76660;BME280;65579;45.534;6.212;2023-09-19T00:05:58;98399.24;;;22.00;45.46
76660;BME280;65579;45.534;6.212;2023-09-19T00:08:23;98405.56;;;22.04;44.77
76660;BME280;65579;45.534;6.212;2023-09-19T00:10:49;98412.07;;;22.05;44.29
76660;BME280;65579;45.534;6.212;2023-09-19T00:13:15;98412.93;;;22.06;45.63
76660;BME280;65579;45.534;6.212;2023-09-19T00:15:42;98412.00;;;21.17;47.18
76660;BME280;65579;45.534;6.212;2023-09-19T00:18:07;98409.15;;;21.42;46.96
76660;BME280;65579;45.534;6.212;2023-09-19T00:20:32;98405.00;;;21.93;45.85
76660;BME280;65579;45.534;6.212;2023-09-19T00:22:58;98407.86;;;21.77;45.02
76660;BME280;65579;45.534;6.212;2023-09-19T00:25:23;98410.55;;;21.70;45.10
76660;BME280;65579;45.534;6.212;2023-09-19T00:27:49;98410.19;;;21.89;44.94
76660;BME280;65579;45.534;6.212;2023-09-19T00:30:15;98409.03;;;21.97;45.16
76660;BME280;65579;45.534;6.212;2023-09-19T00:32:41;98407.34;;;22.22;44.70
76660;BME280;65579;45.534;6.212;2023-09-19T00:35:07;98406.73;;;22.39;44.48
76660;BME280;65579;45.534;6.212;2023-09-19T00:37:33;98404.18;;;22.75;44.31
76660;BME280;65579;45.534;6.212;2023-09-19T00:39:58;98397.64;;;22.59;43.91
76660;BME280;65579;45.534;6.212;2023-09-19T00:42:24;98396.68;;;22.45;44.45
76660;BME280;65579;45.534;6.212;2023-09-19T00:44:50;98407.17;;;13.66;65.25
76660;BME280;65579;45.534;6.212;2023-09-19T00:47:16;98400.13;;;12.91;70.54
76660;BME280;65579;45.534;6.212;2023-09-19T00:49:41;98408.30;;;14.92;64.74
76660;BME280;65579;45.534;6.212;2023-09-19T00:52:07;98408.54;;;17.96;56.96
76660;BME280;65579;45.534;6.212;2023-09-19T00:54:31;98415.84;;;17.01;58.84
76660;BME280;65579;45.534;6.212;2023-09-19T00:56:57;98413.92;;;18.18;56.00
76660;BME280;65579;45.534;6.212;2023-09-19T00:59:22;98417.48;;;19.94;50.83
76660;BME280;65579;45.534;6.212;2023-09-19T01:01:47;98417.34;;;20.78;49.10
76660;BME280;65579;45.534;6.212;2023-09-19T01:04:12;98412.01;;;21.42;47.77
76660;BME280;65579;45.534;6.212;2023-09-19T01:06:39;98410.74;;;21.65;46.52
76660;BME280;65579;45.534;6.212;2023-09-19T01:09:04;98410.21;;;22.23;45.49
76660;BME280;65579;45.534;6.212;2023-09-19T01:11:35;98412.18;;;22.07;45.13
76660;BME280;65579;45.534;6.212;2023-09-19T01:14:02;98408.06;;;22.14;45.07
76660;BME280;65579;45.534;6.212;2023-09-19T01:16:31;98403.58;;;22.31;44.91
76660;BME280;65579;45.534;6.212;2023-09-19T01:18:52;98397.58;;;22.43;44.57
76660;BME280;65579;45.534;6.212;2023-09-19T01:21:21;98397.03;;;22.27;44.11
76660;BME280;65579;45.534;6.212;2023-09-19T01:23:52;98400.40;;;22.38;44.16
76660;BME280;65579;45.534;6.212;2023-09-19T01:26:10;98403.45;;;22.49;44.36
76660;BME280;65579;45.534;6.212;2023-09-19T01:28:32;98403.91;;;22.33;44.75
76660;BME280;65579;45.534;6.212;2023-09-19T01:30:57;98404.25;;;22.54;44.20
76660;BME280;65579;45.534;6.212;2023-09-19T01:33:22;98414.75;;;22.39;43.91
76660;BME280;65579;45.534;6.212;2023-09-19T01:35:48;98415.10;;;22.73;43.46
76660;BME280;65579;45.534;6.212;2023-09-19T01:38:14;98415.11;;;22.33;44.82
76660;BME280;65579;45.534;6.212;2023-09-19T01:40:42;98412.78;;;22.55;44.54
76660;BME280;65579;45.534;6.212;2023-09-19T01:43:12;98405.56;;;22.70;43.74
76660;BME280;65579;45.534;6.212;2023-09-19T01:45:35;98408.24;;;22.59;43.53
76660;BME280;65579;45.534;6.212;2023-09-19T01:48:05;98413.89;;;22.44;43.65
76660;BME280;65579;45.534;6.212;2023-09-19T01:50:29;98410.69;;;22.42;43.78
76660;BME280;65579;45.534;6.212;2023-09-19T01:52:54;98400.22;;;22.54;43.92
76660;BME280;65579;45.534;6.212;2023-09-19T01:55:15;98395.73;;;21.31;46.60
76660;BME280;65579;45.534;6.212;2023-09-19T01:57:46;98393.54;;;21.93;46.05
76660;BME280;65579;45.534;6.212;2023-09-19T02:00:07;98396.50;;;21.47;45.86
76660;BME280;65579;45.534;6.212;2023-09-19T02:02:33;98411.43;;;14.02;64.34
76660;BME280;65579;45.534;6.212;2023-09-19T02:04:56;98411.87;;;13.78;68.71
76660;BME280;65579;45.534;6.212;2023-09-19T02:07:22;98408.01;;;17.81;57.95
76660;BME280;65579;45.534;6.212;2023-09-19T02:09:46;98407.13;;;17.05;59.20
76660;BME280;65579;45.534;6.212;2023-09-19T02:12:11;98405.44;;;16.06;61.65
76660;BME280;65579;45.534;6.212;2023-09-19T02:14:36;98400.78;;;15.93;62.01
76660;BME280;65579;45.534;6.212;2023-09-19T02:17:02;98405.89;;;14.82;64.87
76660;BME280;65579;45.534;6.212;2023-09-19T02:19:27;98407.66;;;12.47;73.44
76660;BME280;65579;45.534;6.212;2023-09-19T02:21:51;98413.18;;;12.60;75.36
76660;BME280;65579;45.534;6.212;2023-09-19T02:24:16;98415.14;;;15.21;67.14
76660;BME280;65579;45.534;6.212;2023-09-19T02:26:42;98411.29;;;18.32;57.25
76660;BME280;65579;45.534;6.212;2023-09-19T02:29:07;98411.76;;;19.60;53.98
76660;BME280;65579;45.534;6.212;2023-09-19T02:31:32;98412.40;;;20.32;50.91
76660;BME280;65579;45.534;6.212;2023-09-19T02:33:57;98408.69;;;20.54;50.12
76660;BME280;65579;45.534;6.212;2023-09-19T02:36:22;98405.12;;;20.15;50.12
76660;BME280;65579;45.534;6.212;2023-09-19T02:38:47;98398.70;;;21.21;48.12
76660;BME280;65579;45.534;6.212;2023-09-19T02:41:12;98400.84;;;21.70;46.97
76660;BME280;65579;45.534;6.212;2023-09-19T02:43:52;98399.15;;;21.80;45.95
76660;BME280;65579;45.534;6.212;2023-09-19T02:46:03;98401.57;;;21.66;45.76
76660;BME280;65579;45.534;6.212;2023-09-19T02:48:29;98397.75;;;21.75;46.19
76660;BME280;65579;45.534;6.212;2023-09-19T02:50:56;98395.55;;;22.01;45.72
76660;BME280;65579;45.534;6.212;2023-09-19T02:53:21;98397.59;;;22.52;45.19
76660;BME280;65579;45.534;6.212;2023-09-19T02:55:47;98402.32;;;22.21;45.20
76660;BME280;65579;45.534;6.212;2023-09-19T02:58:12;98403.57;;;21.47;46.54
76660;BME280;65579;45.534;6.212;2023-09-19T03:00:40;98404.73;;;20.98;47.82
76660;BME280;65579;45.534;6.212;2023-09-19T03:03:04;98404.21;;;22.07;46.34
76660;BME280;65579;45.534;6.212;2023-09-19T03:05:29;98401.50;;;21.92;45.79
76660;BME280;65579;45.534;6.212;2023-09-19T03:07:55;98399.08;;;22.13;45.54
76660;BME280;65579;45.534;6.212;2023-09-19T03:10:22;98395.79;;;21.52;46.73
76660;BME280;65579;45.534;6.212;2023-09-19T03:12:47;98394.52;;;21.84;46.06
76660;BME280;65579;45.534;6.212;2023-09-19T03:15:13;98393.05;;;22.56;45.50
76660;BME280;65579;45.534;6.212;2023-09-19T03:17:43;98391.88;;;22.33;44.67
76660;BME280;65579;45.534;6.212;2023-09-19T03:20:05;98385.31;;;22.48;44.04
76660;BME280;65579;45.534;6.212;2023-09-19T03:22:30;98387.90;;;22.65;44.22
76660;BME280;65579;45.534;6.212;2023-09-19T03:24:56;98385.67;;;22.78;43.97
76660;BME280;65579;45.534;6.212;2023-09-19T03:27:22;98385.79;;;22.70;44.29
76660;BME280;65579;45.534;6.212;2023-09-19T03:29:48;98386.85;;;22.82;44.00
76660;BME280;65579;45.534;6.212;2023-09-19T03:32:13;98386.10;;;22.93;43.57
76660;BME280;65579;45.534;6.212;2023-09-19T03:34:39;98388.23;;;23.01;43.34
76660;BME280;65579;45.534;6.212;2023-09-19T03:37:05;98390.43;;;23.09;43.19
76660;BME280;65579;45.534;6.212;2023-09-19T03:39:31;98387.00;;;23.03;43.39
76660;BME280;65579;45.534;6.212;2023-09-19T03:41:57;98385.03;;;22.70;43.78
76660;BME280;65579;45.534;6.212;2023-09-19T03:44:23;98385.01;;;22.64;43.69
76660;BME280;65579;45.534;6.212;2023-09-19T03:46:48;98381.79;;;22.48;44.60
76660;BME280;65579;45.534;6.212;2023-09-19T03:49:14;98377.84;;;22.59;44.56
76660;BME280;65579;45.534;6.212;2023-09-19T03:51:40;98374.45;;;22.65;44.51
76660;BME280;65579;45.534;6.212;2023-09-19T03:54:06;98372.88;;;22.61;44.51
76660;BME280;65579;45.534;6.212;2023-09-19T03:56:32;98370.32;;;22.78;43.65
76660;BME280;65579;45.534;6.212;2023-09-19T03:58:58;98370.95;;;22.63;43.37
76660;BME280;65579;45.534;6.212;2023-09-19T04:01:23;98373.61;;;22.87;43.20
76660;BME280;65579;45.534;6.212;2023-09-19T04:03:49;98379.73;;;22.45;43.34
76660;BME280;65579;45.534;6.212;2023-09-19T04:06:16;98382.03;;;22.80;43.22
76660;BME280;65579;45.534;6.212;2023-09-19T04:08:40;98384.99;;;23.06;43.21
76660;BME280;65579;45.534;6.212;2023-09-19T04:11:06;98388.28;;;23.15;43.14
76660;BME280;65579;45.534;6.212;2023-09-19T04:13:32;98391.02;;;23.01;43.06
76660;BME280;65579;45.534;6.212;2023-09-19T04:15:58;98393.92;;;23.24;43.27
76660;BME280;65579;45.534;6.212;2023-09-19T04:18:23;98393.37;;;21.96;45.56
76660;BME280;65579;45.534;6.212;2023-09-19T04:20:49;98390.72;;;20.98;47.28
76660;BME280;65579;45.534;6.212;2023-09-19T04:23:15;98394.12;;;20.20;49.07
76660;BME280;65579;45.534;6.212;2023-09-19T04:25:41;98392.91;;;18.84;51.87
76660;BME280;65579;45.534;6.212;2023-09-19T04:28:06;98392.05;;;20.69;49.02
76660;BME280;65579;45.534;6.212;2023-09-19T04:30:32;98386.85;;;17.63;55.26
76660;BME280;65579;45.534;6.212;2023-09-19T04:32:58;98384.70;;;17.80;56.06
76660;BME280;65579;45.534;6.212;2023-09-19T04:35:23;98386.26;;;17.68;56.08
76660;BME280;65579;45.534;6.212;2023-09-19T04:37:50;98387.16;;;17.77;55.43
76660;BME280;65579;45.534;6.212;2023-09-19T04:40:14;98388.61;;;18.67;53.78
76660;BME280;65579;45.534;6.212;2023-09-19T04:42:40;98393.64;;;19.27;52.31
76660;BME280;65579;45.534;6.212;2023-09-19T04:45:05;98396.69;;;19.04;52.30
76660;BME280;65579;45.534;6.212;2023-09-19T04:47:30;98399.10;;;20.36;50.24
76660;BME280;65579;45.534;6.212;2023-09-19T04:49:55;98402.70;;;16.53;58.45
76660;BME280;65579;45.534;6.212;2023-09-19T04:52:20;98405.12;;;19.05;52.50
76660;BME280;65579;45.534;6.212;2023-09-19T04:54:45;98409.34;;;18.96;53.47
76660;BME280;65579;45.534;6.212;2023-09-19T04:57:10;98413.78;;;19.68;51.59
76660;BME280;65579;45.534;6.212;2023-09-19T04:59:36;98415.42;;;16.30;58.46
76660;BME280;65579;45.534;6.212;2023-09-19T05:02:02;98423.79;;;16.87;58.78
76660;BME280;65579;45.534;6.212;2023-09-19T05:04:26;98423.29;;;18.56;54.68
76660;BME280;65579;45.534;6.212;2023-09-19T05:06:52;98423.58;;;17.44;57.05
76660;BME280;65579;45.534;6.212;2023-09-19T05:09:17;98422.00;;;18.32;55.10
76660;BME280;65579;45.534;6.212;2023-09-19T05:11:42;98426.14;;;19.84;51.37
76660;BME280;65579;45.534;6.212;2023-09-19T05:14:07;98430.91;;;20.61;49.06
76660;BME280;65579;45.534;6.212;2023-09-19T05:16:32;98434.57;;;20.84;48.52
76660;BME280;65579;45.534;6.212;2023-09-19T05:18:58;98440.34;;;21.19;47.68
76660;BME280;65579;45.534;6.212;2023-09-19T05:21:23;98443.87;;;21.55;47.19
76660;BME280;65579;45.534;6.212;2023-09-19T05:23:48;98444.49;;;21.51;46.87
76660;BME280;65579;45.534;6.212;2023-09-19T05:26:14;98448.26;;;21.79;46.19
76660;BME280;65579;45.534;6.212;2023-09-19T05:28:40;98448.04;;;22.35;45.60
76660;BME280;65579;45.534;6.212;2023-09-19T05:31:06;98449.87;;;22.43;45.64
76660;BME280;65579;45.534;6.212;2023-09-19T05:33:32;98450.85;;;22.05;45.40
76660;BME280;65579;45.534;6.212;2023-09-19T05:35:57;98454.20;;;22.56;44.70
76660;BME280;65579;45.534;6.212;2023-09-19T05:38:23;98456.90;;;21.93;45.42
76660;BME280;65579;45.534;6.212;2023-09-19T05:40:49;98456.77;;;21.26;47.01
76660;BME280;65579;45.534;6.212;2023-09-19T05:43:15;98459.39;;;20.64;48.23
76660;BME280;65579;45.534;6.212;2023-09-19T05:45:41;98458.39;;;22.12;46.11
76660;BME280;65579;45.534;6.212;2023-09-19T05:48:09;98461.11;;;21.27;46.12
76660;BME280;65579;45.534;6.212;2023-09-19T05:50:32;98463.26;;;21.72;45.38
76660;BME280;65579;45.534;6.212;2023-09-19T05:52:58;98461.49;;;21.72;46.70
76660;BME280;65579;45.534;6.212;2023-09-19T05:55:24;98464.87;;;22.07;45.42
76660;BME280;65579;45.534;6.212;2023-09-19T05:57:51;98465.20;;;22.05;45.37
76660;BME280;65579;45.534;6.212;2023-09-19T06:00:16;98467.16;;;22.00;45.68
76660;BME280;65579;45.534;6.212;2023-09-19T06:02:41;98471.20;;;21.87;46.48
76660;BME280;65579;45.534;6.212;2023-09-19T06:05:07;98476.12;;;22.06;45.45
76660;BME280;65579;45.534;6.212;2023-09-19T06:07:33;98476.93;;;22.25;45.39
76660;BME280;65579;45.534;6.212;2023-09-19T06:09:59;98476.92;;;21.88;46.24
76660;BME280;65579;45.534;6.212;2023-09-19T06:12:24;98479.21;;;22.12;45.63
76660;BME280;65579;45.534;6.212;2023-09-19T06:14:50;98480.38;;;21.75;46.35
76660;BME280;65579;45.534;6.212;2023-09-19T06:17:16;98485.12;;;21.31;47.40
76660;BME280;65579;45.534;6.212;2023-09-19T06:19:42;98484.06;;;21.96;46.04
76660;BME280;65579;45.534;6.212;2023-09-19T06:22:08;98486.86;;;22.39;45.18
76660;BME280;65579;45.534;6.212;2023-09-19T06:24:33;98486.70;;;22.65;44.69
76660;BME280;65579;45.534;6.212;2023-09-19T06:26:59;98489.01;;;22.52;45.15
76660;BME280;65579;45.534;6.212;2023-09-19T06:29:25;98482.35;;;22.24;45.61
76660;BME280;65579;45.534;6.212;2023-09-19T06:31:51;98477.07;;;22.61;45.16
76660;BME280;65579;45.534;6.212;2023-09-19T06:34:17;98471.10;;;22.72;44.50
76660;BME280;65579;45.534;6.212;2023-09-19T06:36:42;98468.03;;;23.04;43.75
76660;BME280;65579;45.534;6.212;2023-09-19T06:39:08;98468.33;;;22.98;43.38
76660;BME280;65579;45.534;6.212;2023-09-19T06:41:34;98467.65;;;23.38;43.03
76660;BME280;65579;45.534;6.212;2023-09-19T06:44:00;98470.15;;;23.52;42.55
76660;BME280;65579;45.534;6.212;2023-09-19T06:46:26;98474.03;;;23.35;42.46
76660;BME280;65579;45.534;6.212;2023-09-19T06:48:51;98475.38;;;23.73;42.68
76660;BME280;65579;45.534;6.212;2023-09-19T06:51:18;98478.77;;;23.37;42.49
76660;BME280;65579;45.534;6.212;2023-09-19T06:53:43;98484.17;;;23.46;42.27
76660;BME280;65579;45.534;6.212;2023-09-19T06:56:09;98486.79;;;23.13;43.39
76660;BME280;65579;45.534;6.212;2023-09-19T06:58:34;98487.15;;;23.74;42.64
76660;BME280;65579;45.534;6.212;2023-09-19T07:01:00;98487.93;;;23.71;42.46
76660;BME280;65579;45.534;6.212;2023-09-19T07:03:26;98488.63;;;23.00;44.61
76660;BME280;65579;45.534;6.212;2023-09-19T07:05:52;98489.81;;;23.55;43.68
76660;BME280;65579;45.534;6.212;2023-09-19T07:08:18;98490.55;;;23.69;42.30
76660;BME280;65579;45.534;6.212;2023-09-19T07:10:43;98487.37;;;23.91;41.93
76660;BME280;65579;45.534;6.212;2023-09-19T07:13:09;98488.48;;;24.00;42.00
76660;BME280;65579;45.534;6.212;2023-09-19T07:15:35;98490.58;;;23.59;42.18
76660;BME280;65579;45.534;6.212;2023-09-19T07:18:01;98490.10;;;24.08;41.66
76660;BME280;65579;45.534;6.212;2023-09-19T07:20:27;98492.39;;;24.09;42.38
76660;BME280;65579;45.534;6.212;2023-09-19T07:22:52;98492.74;;;24.02;41.73
76660;BME280;65579;45.534;6.212;2023-09-19T07:25:18;98491.12;;;24.26;41.39
76660;BME280;65579;45.534;6.212;2023-09-19T07:27:44;98492.94;;;23.97;41.67
76660;BME280;65579;45.534;6.212;2023-09-19T07:30:10;98498.79;;;21.36;46.98
76660;BME280;65579;45.534;6.212;2023-09-19T07:32:35;98499.35;;;21.45;47.63
76660;BME280;65579;45.534;6.212;2023-09-19T07:35:01;98500.30;;;21.96;47.31
76660;BME280;65579;45.534;6.212;2023-09-19T07:37:26;98500.64;;;21.90;47.11
76660;BME280;65579;45.534;6.212;2023-09-19T07:39:52;98501.17;;;23.01;44.73
76660;BME280;65579;45.534;6.212;2023-09-19T07:42:18;98501.60;;;23.13;44.69
76660;BME280;65579;45.534;6.212;2023-09-19T07:44:44;98499.57;;;23.37;43.77
76660;BME280;65579;45.534;6.212;2023-09-19T07:47:09;98503.44;;;22.84;44.96
76660;BME280;65579;45.534;6.212;2023-09-19T07:49:35;98502.50;;;23.41;43.91
76660;BME280;65579;45.534;6.212;2023-09-19T07:52:01;98503.66;;;24.03;42.82
76660;BME280;65579;45.534;6.212;2023-09-19T07:54:27;98508.87;;;23.46;43.75
76660;BME280;65579;45.534;6.212;2023-09-19T07:56:52;98515.67;;;20.52;48.82
76660;BME280;65579;45.534;6.212;2023-09-19T07:59:18;98516.44;;;22.80;45.10
76660;BME280;65579;45.534;6.212;2023-09-19T08:01:44;98514.38;;;23.38;44.05
76660;BME280;65579;45.534;6.212;2023-09-19T08:04:10;98516.63;;;22.33;46.14
76660;BME280;65579;45.534;6.212;2023-09-19T08:06:36;98516.98;;;21.90;46.08
76660;BME280;65579;45.534;6.212;2023-09-19T08:09:02;98524.20;;;19.64;50.91
76660;BME280;65579;45.534;6.212;2023-09-19T08:11:27;98515.93;;;22.17;47.07
76660;BME280;65579;45.534;6.212;2023-09-19T08:13:53;98517.47;;;21.58;47.87
76660;BME280;65579;45.534;6.212;2023-09-19T08:16:19;98523.67;;;18.73;54.44
76660;BME280;65579;45.534;6.212;2023-09-19T08:18:47;98529.36;;;20.25;50.64
76660;BME280;65579;45.534;6.212;2023-09-19T08:21:12;98529.33;;;18.98;53.06
76660;BME280;65579;45.534;6.212;2023-09-19T08:23:36;98532.34;;;20.39;51.02
76660;BME280;65579;45.534;6.212;2023-09-19T08:26:02;98527.13;;;20.58;50.86
76660;BME280;65579;45.534;6.212;2023-09-19T08:28:28;98528.64;;;19.68;51.10
76660;BME280;65579;45.534;6.212;2023-09-19T08:30:53;98530.20;;;20.67;50.03
76660;BME280;65579;45.534;6.212;2023-09-19T08:33:19;98531.70;;;20.47;50.65
76660;BME280;65579;45.534;6.212;2023-09-19T08:35:45;98533.14;;;19.53;52.80
76660;BME280;65579;45.534;6.212;2023-09-19T08:38:11;98531.57;;;19.53;52.72
76660;BME280;65579;45.534;6.212;2023-09-19T08:40:37;98535.79;;;20.66;51.26
76660;BME280;65579;45.534;6.212;2023-09-19T08:43:03;98534.02;;;21.02;50.26
76660;BME280;65579;45.534;6.212;2023-09-19T08:45:28;98538.87;;;20.23;51.98
76660;BME280;65579;45.534;6.212;2023-09-19T08:48:05;98537.74;;;18.30;57.61
76660;BME280;65579;45.534;6.212;2023-09-19T08:50:25;98535.52;;;19.46;55.06
76660;BME280;65579;45.534;6.212;2023-09-19T08:52:46;98534.12;;;19.33;54.24
76660;BME280;65579;45.534;6.212;2023-09-19T08:55:13;98530.78;;;18.59;55.96
76660;BME280;65579;45.534;6.212;2023-09-19T08:57:38;98528.93;;;21.36;50.35
76660;BME280;65579;45.534;6.212;2023-09-19T09:00:05;98518.96;;;22.05;48.39
76660;BME280;65579;45.534;6.212;2023-09-19T09:02:29;98518.45;;;23.06;45.41
76660;BME280;65579;45.534;6.212;2023-09-19T09:04:55;98517.69;;;22.31;46.54
76660;BME280;65579;45.534;6.212;2023-09-19T09:07:21;98517.36;;;21.79;48.17
76660;BME280;65579;45.534;6.212;2023-09-19T09:09:46;98517.40;;;21.57;49.28
76660;BME280;65579;45.534;6.212;2023-09-19T09:12:13;98515.60;;;21.94;48.27
76660;BME280;65579;45.534;6.212;2023-09-19T09:14:38;98520.97;;;20.33;51.28
76660;BME280;65579;45.534;6.212;2023-09-19T09:17:03;98521.51;;;20.61;52.27
76660;BME280;65579;45.534;6.212;2023-09-19T09:19:30;98519.79;;;21.04;50.97
76660;BME280;65579;45.534;6.212;2023-09-19T09:22:06;98516.34;;;21.15;50.99
76660;BME280;65579;45.534;6.212;2023-09-19T09:24:26;98517.30;;;19.65;53.90
76660;BME280;65579;45.534;6.212;2023-09-19T09:26:47;98517.08;;;19.86;54.01
76660;BME280;65579;45.534;6.212;2023-09-19T09:29:12;98510.87;;;20.30;53.91
76660;BME280;65579;45.534;6.212;2023-09-19T09:31:38;98505.54;;;23.42;46.88
76660;BME280;65579;45.534;6.212;2023-09-19T09:34:04;98504.70;;;23.43;45.73
76660;BME280;65579;45.534;6.212;2023-09-19T09:36:34;98503.91;;;22.93;47.68
76660;BME280;65579;45.534;6.212;2023-09-19T09:38:55;98502.87;;;21.62;49.87
76660;BME280;65579;45.534;6.212;2023-09-19T09:41:35;98502.04;;;22.44;49.62
76660;BME280;65579;45.534;6.212;2023-09-19T09:43:47;98501.92;;;21.58;49.84
76660;BME280;65579;45.534;6.212;2023-09-19T09:46:14;98502.99;;;22.30;49.14
76660;BME280;65579;45.534;6.212;2023-09-19T09:48:38;98496.89;;;22.70;49.64
76660;BME280;65579;45.534;6.212;2023-09-19T09:51:04;98491.84;;;23.54;44.70
76660;BME280;65579;45.534;6.212;2023-09-19T09:53:30;98492.67;;;22.98;45.47
76660;BME280;65579;45.534;6.212;2023-09-19T09:56:01;98491.89;;;24.41;43.00
76660;BME280;65579;45.534;6.212;2023-09-19T09:58:21;98490.68;;;22.13;47.48
76660;BME280;65579;45.534;6.212;2023-09-19T10:00:53;98483.96;;;24.07;45.30
76660;BME280;65579;45.534;6.212;2023-09-19T10:03:19;98483.55;;;22.01;47.34
76660;BME280;65579;45.534;6.212;2023-09-19T10:05:44;98482.69;;;24.45;44.36
76660;BME280;65579;45.534;6.212;2023-09-19T10:08:10;98481.30;;;24.89;42.84
76660;BME280;65579;45.534;6.212;2023-09-19T10:10:31;98474.03;;;23.69;44.59
76660;BME280;65579;45.534;6.212;2023-09-19T10:12:59;98477.10;;;24.47;43.89
76660;BME280;65579;45.534;6.212;2023-09-19T10:15:22;98473.62;;;22.82;44.78
76660;BME280;65579;45.534;6.212;2023-09-19T10:17:48;98472.70;;;24.47;42.99
76660;BME280;65579;45.534;6.212;2023-09-19T10:20:14;98466.76;;;24.78;41.33
76660;BME280;65579;45.534;6.212;2023-09-19T10:22:39;98465.69;;;25.48;41.21
76660;BME280;65579;45.534;6.212;2023-09-19T10:25:05;98460.38;;;23.47;44.45
76660;BME280;65579;45.534;6.212;2023-09-19T10:27:30;98458.11;;;24.12;43.63
76660;BME280;65579;45.534;6.212;2023-09-19T10:29:57;98454.51;;;21.18;47.48
76660;BME280;65579;45.534;6.212;2023-09-19T10:32:22;98452.13;;;23.91;42.73
76660;BME280;65579;45.534;6.212;2023-09-19T10:34:47;98450.01;;;23.77;45.39
76660;BME280;65579;45.534;6.212;2023-09-19T10:37:13;98450.37;;;21.20;48.28
76660;BME280;65579;45.534;6.212;2023-09-19T10:39:39;98446.45;;;23.53;45.49
76660;BME280;65579;45.534;6.212;2023-09-19T10:42:06;98447.13;;;21.26;48.37
76660;BME280;65579;45.534;6.212;2023-09-19T10:44:32;98442.26;;;21.76;47.25
76660;BME280;65579;45.534;6.212;2023-09-19T10:46:57;98439.57;;;24.54;41.95
76660;BME280;65579;45.534;6.212;2023-09-19T10:49:22;98435.37;;;23.21;45.07
76660;BME280;65579;45.534;6.212;2023-09-19T10:51:49;98436.91;;;22.14;46.67
76660;BME280;65579;45.534;6.212;2023-09-19T10:54:15;98438.66;;;21.56;49.25
76660;BME280;65579;45.534;6.212;2023-09-19T10:56:43;98429.89;;;23.08;46.34
76660;BME280;65579;45.534;6.212;2023-09-19T10:59:06;98421.09;;;22.57;45.11
76660;BME280;65579;45.534;6.212;2023-09-19T11:01:44;98418.80;;;23.71;45.08
76660;BME280;65579;45.534;6.212;2023-09-19T11:06:22;98413.42;;;22.79;47.56
76660;BME280;65579;45.534;6.212;2023-09-19T11:08:54;98412.22;;;22.53;48.50
76660;BME280;65579;45.534;6.212;2023-09-19T11:13:39;98407.35;;;22.59;45.58
76660;BME280;65579;45.534;6.212;2023-09-19T11:16:05;98401.78;;;23.42;43.65
76660;BME280;65579;45.534;6.212;2023-09-19T11:23:22;98397.37;;;22.16;46.78
76660;BME280;65579;45.534;6.212;2023-09-19T11:25:48;98395.87;;;24.58;40.29
76660;BME280;65579;45.534;6.212;2023-09-19T11:28:28;98393.44;;;22.44;42.87
76660;BME280;65579;45.534;6.212;2023-09-19T11:30:40;98392.54;;;23.47;43.17
76660;BME280;65579;45.534;6.212;2023-09-19T11:33:16;98392.08;;;21.43;47.46
76660;BME280;65579;45.534;6.212;2023-09-19T11:38:00;98387.74;;;22.01;45.56
76660;BME280;65579;45.534;6.212;2023-09-19T11:40:22;98388.36;;;22.47;44.23
76660;BME280;65579;45.534;6.212;2023-09-19T11:42:48;98387.08;;;22.91;46.29
76660;BME280;65579;45.534;6.212;2023-09-19T11:47:39;98389.32;;;21.21;46.20
76660;BME280;65579;45.534;6.212;2023-09-19T11:50:05;98387.66;;;20.59;46.75
76660;BME280;65579;45.534;6.212;2023-09-19T11:52:31;98384.80;;;22.69;45.71
76660;BME280;65579;45.534;6.212;2023-09-19T11:54:56;98386.42;;;24.47;43.42
76660;BME280;65579;45.534;6.212;2023-09-19T11:57:22;98382.54;;;21.75;45.74
76660;BME280;65579;45.534;6.212;2023-09-19T11:59:47;98377.81;;;23.35;44.03
76660;BME280;65579;45.534;6.212;2023-09-19T12:02:30;98379.30;;;23.27;43.75
76660;BME280;65579;45.534;6.212;2023-09-19T12:04:41;98371.97;;;22.56;45.28
76660;BME280;65579;45.534;6.212;2023-09-19T12:07:07;98370.22;;;22.47;44.80
76660;BME280;65579;45.534;6.212;2023-09-19T12:09:30;98371.56;;;21.12;46.60
76660;BME280;65579;45.534;6.212;2023-09-19T12:11:56;98367.80;;;22.58;44.18
76660;BME280;65579;45.534;6.212;2023-09-19T12:14:22;98364.96;;;23.00;42.77
76660;BME280;65579;45.534;6.212;2023-09-19T12:16:52;98362.16;;;22.48;43.29
76660;BME280;65579;45.534;6.212;2023-09-19T12:19:19;98355.92;;;23.21;43.47
76660;BME280;65579;45.534;6.212;2023-09-19T12:21:39;98356.09;;;21.28;46.62
76660;BME280;65579;45.534;6.212;2023-09-19T12:24:06;98359.61;;;21.14;47.78
76660;BME280;65579;45.534;6.212;2023-09-19T12:28:56;98352.60;;;20.79;47.83
76660;BME280;65579;45.534;6.212;2023-09-19T12:31:22;98342.83;;;22.11;46.10
76660;BME280;65579;45.534;6.212;2023-09-19T12:33:53;98348.76;;;23.19;43.57
76660;BME280;65579;45.534;6.212;2023-09-19T12:36:22;98350.09;;;21.37;48.58
76660;BME280;65579;45.534;6.212;2023-09-19T12:38:39;98347.11;;;21.43;47.30
76660;BME280;65579;45.534;6.212;2023-09-19T12:41:05;98340.90;;;21.03;45.96
76660;BME280;65579;45.534;6.212;2023-09-19T12:43:31;98337.57;;;21.19;46.04
76660;BME280;65579;45.534;6.212;2023-09-19T12:45:56;98333.25;;;21.84;45.72
76660;BME280;65579;45.534;6.212;2023-09-19T12:48:23;98329.85;;;21.25;46.70
76660;BME280;65579;45.534;6.212;2023-09-19T12:51:01;98331.05;;;20.58;48.33
76660;BME280;65579;45.534;6.212;2023-09-19T12:55:39;98326.51;;;19.72;48.44
76660;BME280;65579;45.534;6.212;2023-09-19T12:58:11;98321.64;;;20.49;47.43
76660;BME280;65579;45.534;6.212;2023-09-19T13:00:33;98319.35;;;20.00;48.49
76660;BME280;65579;45.534;6.212;2023-09-19T13:03:12;98318.41;;;19.67;49.29
76660;BME280;65579;45.534;6.212;2023-09-19T13:07:47;98316.33;;;20.61;47.64
76660;BME280;65579;45.534;6.212;2023-09-19T13:10:13;98316.00;;;20.28;46.74
76660;BME280;65579;45.534;6.212;2023-09-19T13:12:39;98313.58;;;20.18;48.28